sensor_id;sensor_type;location;lat;lon;timestamp;P1;durP1;ratioP1;P2;durP2;ratioP2
12650;SDS011;6390;49.400;8.670;2023-04-21T00:01:14;3.35;;;3.05;;
12650;SDS011;6390;49.400;8.670;2023-04-21T00:03:42;3.20;;;2.90;;
12650;SDS011;6390;49.400;8.670;2023-04-21T00:06:08;3.67;;;3.28;;
12650;SDS011;6390;49.400;8.670;2023-04-21T00:08:34;3.85;;;3.45;;
12650;SDS011;6390;49.400;8.670;2023-04-21T00:11:04;3.33;;;3.00;;
12650;SDS011;6390;49.400;8.670;2023-04-21T00:13:32;3.67;;;3.10;;
12650;SDS011;6390;49.400;8.670;2023-04-21T00:16:00;4.03;;;3.22;;
12650;SDS011;6390;49.400;8.670;2023-04-21T00:18:26;4.07;;;3.45;;
12650;SDS011;6390;49.400;8.670;2023-04-21T00:20:52;3.45;;;3.15;;
12650;SDS011;6390;49.400;8.670;2023-04-21T00:23:19;3.47;;;3.17;;
12650;SDS011;6390;49.400;8.670;2023-04-21T00:25:45;4.05;;;3.65;;
12650;SDS011;6390;49.400;8.670;2023-04-21T00:28:11;3.72;;;3.42;;
12650;SDS011;6390;49.400;8.670;2023-04-21T00:30:37;3.33;;;3.03;;
12650;SDS011;6390;49.400;8.670;2023-04-21T00:33:03;3.03;;;2.72;;
12650;SDS011;6390;49.400;8.670;2023-04-21T00:35:29;3.05;;;2.85;;
12650;SDS011;6390;49.400;8.670;2023-04-21T00:37:55;4.07;;;2.72;;
12650;SDS011;6390;49.400;8.670;2023-04-21T00:40:21;3.17;;;2.88;;
12650;SDS011;6390;49.400;8.670;2023-04-21T00:42:47;2.90;;;2.70;;
12650;SDS011;6390;49.400;8.670;2023-04-21T00:45:13;2.85;;;2.55;;
12650;SDS011;6390;49.400;8.670;2023-04-21T00:47:40;3.35;;;2.97;;
12650;SDS011;6390;49.400;8.670;2023-04-21T00:50:07;3.28;;;2.97;;
12650;SDS011;6390;49.400;8.670;2023-04-21T00:52:34;3.17;;;2.88;;
12650;SDS011;6390;49.400;8.670;2023-04-21T00:55:00;3.70;;;3.33;;
12650;SDS011;6390;49.400;8.670;2023-04-21T00:57:29;3.25;;;2.95;;
12650;SDS011;6390;49.400;8.670;2023-04-21T00:59:56;3.40;;;3.10;;
12650;SDS011;6390;49.400;8.670;2023-04-21T01:02:22;2.95;;;2.75;;
12650;SDS011;6390;49.400;8.670;2023-04-21T01:04:49;3.30;;;3.00;;
12650;SDS011;6390;49.400;8.670;2023-04-21T01:07:15;3.40;;;3.10;;
12650;SDS011;6390;49.400;8.670;2023-04-21T01:09:41;3.30;;;3.00;;
12650;SDS011;6390;49.400;8.670;2023-04-21T01:12:08;3.35;;;3.05;;
12650;SDS011;6390;49.400;8.670;2023-04-21T01:14:36;3.25;;;2.90;;
12650;SDS011;6390;49.400;8.670;2023-04-21T01:17:04;3.28;;;2.97;;
12650;SDS011;6390;49.400;8.670;2023-04-21T01:19:32;3.40;;;3.10;;
12650;SDS011;6390;49.400;8.670;2023-04-21T01:22:03;3.28;;;2.97;;
12650;SDS011;6390;49.400;8.670;2023-04-21T01:24:39;3.03;;;2.83;;
12650;SDS011;6390;49.400;8.670;2023-04-21T01:27:07;3.17;;;2.88;;
12650;SDS011;6390;49.400;8.670;2023-04-21T01:29:43;3.47;;;3.00;;
12650;SDS011;6390;49.400;8.670;2023-04-21T01:32:12;3.35;;;3.05;;
12650;SDS011;6390;49.400;8.670;2023-04-21T01:34:42;3.40;;;2.92;;
12650;SDS011;6390;49.400;8.670;2023-04-21T01:37:09;3.22;;;2.88;;
12650;SDS011;6390;49.400;8.670;2023-04-21T01:39:40;3.33;;;3.00;;
12650;SDS011;6390;49.400;8.670;2023-04-21T01:42:08;3.50;;;3.20;;
12650;SDS011;6390;49.400;8.670;2023-04-21T01:44:35;4.05;;;3.63;;
12650;SDS011;6390;49.400;8.670;2023-04-21T01:47:02;3.25;;;2.95;;
12650;SDS011;6390;49.400;8.670;2023-04-21T01:49:28;3.55;;;3.25;;
12650;SDS011;6390;49.400;8.670;2023-04-21T01:51:54;3.40;;;3.10;;
12650;SDS011;6390;49.400;8.670;2023-04-21T01:54:20;3.67;;;3.28;;
12650;SDS011;6390;49.400;8.670;2023-04-21T01:56:46;4.20;;;3.30;;
12650;SDS011;6390;49.400;8.670;2023-04-21T02:01:48;4.07;;;3.47;;
12650;SDS011;6390;49.400;8.670;2023-04-21T02:04:14;3.47;;;3.17;;
12650;SDS011;6390;49.400;8.670;2023-04-21T02:06:41;3.47;;;3.17;;
12650;SDS011;6390;49.400;8.670;2023-04-21T02:09:07;3.22;;;2.92;;
12650;SDS011;6390;49.400;8.670;2023-04-21T02:11:33;3.35;;;3.05;;
12650;SDS011;6390;49.400;8.670;2023-04-21T02:13:59;3.70;;;3.15;;
12650;SDS011;6390;49.400;8.670;2023-04-21T02:16:25;3.63;;;3.33;;
12650;SDS011;6390;49.400;8.670;2023-04-21T02:18:51;3.47;;;3.17;;
12650;SDS011;6390;49.400;8.670;2023-04-21T02:21:21;3.70;;;3.40;;
12650;SDS011;6390;49.400;8.670;2023-04-21T02:23:48;5.70;;;3.53;;
12650;SDS011;6390;49.400;8.670;2023-04-21T02:26:15;3.40;;;2.75;;
12650;SDS011;6390;49.400;8.670;2023-04-21T02:28:41;3.22;;;2.92;;
12650;SDS011;6390;49.400;8.670;2023-04-21T02:31:07;3.20;;;2.90;;
12650;SDS011;6390;49.400;8.670;2023-04-21T02:33:34;3.28;;;2.97;;
12650;SDS011;6390;49.400;8.670;2023-04-21T02:36:00;3.42;;;3.13;;
12650;SDS011;6390;49.400;8.670;2023-04-21T02:38:26;3.45;;;3.15;;
12650;SDS011;6390;49.400;8.670;2023-04-21T02:40:52;3.83;;;3.30;;
12650;SDS011;6390;49.400;8.670;2023-04-21T02:43:19;3.28;;;2.97;;
12650;SDS011;6390;49.400;8.670;2023-04-21T02:45:45;3.58;;;3.28;;
12650;SDS011;6390;49.400;8.670;2023-04-21T02:48:11;3.92;;;3.53;;
12650;SDS011;6390;49.400;8.670;2023-04-21T02:50:37;4.00;;;3.65;;
12650;SDS011;6390;49.400;8.670;2023-04-21T02:53:04;3.42;;;3.13;;
12650;SDS011;6390;49.400;8.670;2023-04-21T02:55:30;4.15;;;3.75;;
12650;SDS011;6390;49.400;8.670;2023-04-21T02:57:56;3.60;;;3.28;;
12650;SDS011;6390;49.400;8.670;2023-04-21T03:00:23;3.60;;;3.30;;
12650;SDS011;6390;49.400;8.670;2023-04-21T03:02:49;3.72;;;3.42;;
12650;SDS011;6390;49.400;8.670;2023-04-21T03:05:17;3.45;;;3.15;;
12650;SDS011;6390;49.400;8.670;2023-04-21T03:07:43;3.85;;;3.45;;
12650;SDS011;6390;49.400;8.670;2023-04-21T03:10:10;3.95;;;3.60;;
12650;SDS011;6390;49.400;8.670;2023-04-21T03:12:36;3.90;;;3.50;;
12650;SDS011;6390;49.400;8.670;2023-04-21T03:15:02;3.95;;;3.55;;
12650;SDS011;6390;49.400;8.670;2023-04-21T03:17:29;4.22;;;3.45;;
12650;SDS011;6390;49.400;8.670;2023-04-21T03:19:55;3.67;;;3.38;;
12650;SDS011;6390;49.400;8.670;2023-04-21T03:22:21;3.80;;;3.40;;
12650;SDS011;6390;49.400;8.670;2023-04-21T03:24:47;3.92;;;3.58;;
12650;SDS011;6390;49.400;8.670;2023-04-21T03:27:13;4.40;;;3.53;;
12650;SDS011;6390;49.400;8.670;2023-04-21T03:29:39;4.03;;;3.63;;
12650;SDS011;6390;49.400;8.670;2023-04-21T03:32:06;3.50;;;3.20;;
12650;SDS011;6390;49.400;8.670;2023-04-21T03:34:32;3.78;;;3.47;;
12650;SDS011;6390;49.400;8.670;2023-04-21T03:36:58;3.30;;;3.00;;
12650;SDS011;6390;49.400;8.670;2023-04-21T03:39:24;3.63;;;3.28;;
12650;SDS011;6390;49.400;8.670;2023-04-21T03:41:50;3.35;;;3.05;;
12650;SDS011;6390;49.400;8.670;2023-04-21T03:44:16;3.53;;;3.20;;
12650;SDS011;6390;49.400;8.670;2023-04-21T03:46:42;3.97;;;3.58;;
12650;SDS011;6390;49.400;8.670;2023-04-21T03:49:08;3.78;;;3.47;;
12650;SDS011;6390;49.400;8.670;2023-04-21T03:51:34;3.95;;;3.55;;
12650;SDS011;6390;49.400;8.670;2023-04-21T03:54:00;3.85;;;3.45;;
12650;SDS011;6390;49.400;8.670;2023-04-21T03:56:26;3.63;;;3.33;;
12650;SDS011;6390;49.400;8.670;2023-04-21T03:58:52;3.58;;;3.28;;
12650;SDS011;6390;49.400;8.670;2023-04-21T04:01:18;3.33;;;3.03;;
12650;SDS011;6390;49.400;8.670;2023-04-21T04:03:46;3.28;;;2.88;;
12650;SDS011;6390;49.400;8.670;2023-04-21T04:06:12;3.63;;;3.33;;
12650;SDS011;6390;49.400;8.670;2023-04-21T04:08:38;3.58;;;3.28;;
12650;SDS011;6390;49.400;8.670;2023-04-21T04:11:04;4.70;;;3.67;;
12650;SDS011;6390;49.400;8.670;2023-04-21T04:13:30;8.82;;;3.30;;
12650;SDS011;6390;49.400;8.670;2023-04-21T04:15:56;3.72;;;3.42;;
12650;SDS011;6390;49.400;8.670;2023-04-21T04:18:23;3.35;;;3.15;;
12650;SDS011;6390;49.400;8.670;2023-04-21T04:20:49;7.72;;;3.38;;
12650;SDS011;6390;49.400;8.670;2023-04-21T04:23:15;4.15;;;3.75;;
12650;SDS011;6390;49.400;8.670;2023-04-21T04:25:41;5.28;;;3.45;;
12650;SDS011;6390;49.400;8.670;2023-04-21T04:28:07;3.42;;;3.15;;
12650;SDS011;6390;49.400;8.670;2023-04-21T04:30:34;3.33;;;3.10;;
12650;SDS011;6390;49.400;8.670;2023-04-21T04:33:00;3.40;;;3.10;;
12650;SDS011;6390;49.400;8.670;2023-04-21T04:35:27;3.60;;;3.30;;
12650;SDS011;6390;49.400;8.670;2023-04-21T04:37:53;3.80;;;3.50;;
12650;SDS011;6390;49.400;8.670;2023-04-21T04:40:21;4.97;;;3.47;;
12650;SDS011;6390;49.400;8.670;2023-04-21T04:42:47;3.97;;;3.67;;
12650;SDS011;6390;49.400;8.670;2023-04-21T04:45:13;3.67;;;3.38;;
12650;SDS011;6390;49.400;8.670;2023-04-21T04:47:40;3.95;;;3.65;;
12650;SDS011;6390;49.400;8.670;2023-04-21T04:50:07;3.72;;;3.42;;
12650;SDS011;6390;49.400;8.670;2023-04-21T04:52:33;3.97;;;3.45;;
12650;SDS011;6390;49.400;8.670;2023-04-21T04:54:59;6.57;;;3.67;;
12650;SDS011;6390;49.400;8.670;2023-04-21T04:57:26;13.75;;;4.20;;
12650;SDS011;6390;49.400;8.670;2023-04-21T04:59:54;3.75;;;3.45;;
12650;SDS011;6390;49.400;8.670;2023-04-21T05:02:21;3.90;;;3.60;;
12650;SDS011;6390;49.400;8.670;2023-04-21T05:04:48;5.70;;;2.97;;
12650;SDS011;6390;49.400;8.670;2023-04-21T05:07:14;6.40;;;3.33;;
12650;SDS011;6390;49.400;8.670;2023-04-21T05:09:41;3.65;;;3.33;;
12650;SDS011;6390;49.400;8.670;2023-04-21T05:12:07;3.97;;;3.67;;
12650;SDS011;6390;49.400;8.670;2023-04-21T05:14:33;3.85;;;3.55;;
12650;SDS011;6390;49.400;8.670;2023-04-21T05:16:59;3.90;;;3.60;;
12650;SDS011;6390;49.400;8.670;2023-04-21T05:19:25;3.85;;;3.50;;
12650;SDS011;6390;49.400;8.670;2023-04-21T05:21:51;3.63;;;3.33;;
12650;SDS011;6390;49.400;8.670;2023-04-21T05:24:18;3.88;;;3.47;;
12650;SDS011;6390;49.400;8.670;2023-04-21T05:26:48;3.70;;;3.40;;
12650;SDS011;6390;49.400;8.670;2023-04-21T05:29:14;3.95;;;3.65;;
12650;SDS011;6390;49.400;8.670;2023-04-21T05:31:40;4.05;;;3.72;;
12650;SDS011;6390;49.400;8.670;2023-04-21T05:34:06;4.07;;;3.70;;
12650;SDS011;6390;49.400;8.670;2023-04-21T05:36:32;4.25;;;3.85;;
12650;SDS011;6390;49.400;8.670;2023-04-21T05:38:58;4.07;;;3.75;;
12650;SDS011;6390;49.400;8.670;2023-04-21T05:41:24;4.60;;;4.20;;
12650;SDS011;6390;49.400;8.670;2023-04-21T05:43:50;4.03;;;3.70;;
12650;SDS011;6390;49.400;8.670;2023-04-21T05:46:16;4.47;;;4.07;;
12650;SDS011;6390;49.400;8.670;2023-04-21T05:48:43;4.28;;;3.88;;
12650;SDS011;6390;49.400;8.670;2023-04-21T05:51:10;4.45;;;4.05;;
12650;SDS011;6390;49.400;8.670;2023-04-21T05:53:39;4.50;;;4.10;;
12650;SDS011;6390;49.400;8.670;2023-04-21T05:56:10;4.68;;;4.28;;
12650;SDS011;6390;49.400;8.670;2023-04-21T05:58:37;4.15;;;3.80;;
12650;SDS011;6390;49.400;8.670;2023-04-21T06:01:03;4.25;;;3.67;;
12650;SDS011;6390;49.400;8.670;2023-04-21T06:03:33;4.70;;;4.30;;
12650;SDS011;6390;49.400;8.670;2023-04-21T06:05:59;4.43;;;4.03;;
12650;SDS011;6390;49.400;8.670;2023-04-21T06:08:27;4.40;;;4.00;;
12650;SDS011;6390;49.400;8.670;2023-04-21T06:10:53;4.60;;;4.15;;
12650;SDS011;6390;49.400;8.670;2023-04-21T06:13:19;5.22;;;4.75;;
12650;SDS011;6390;49.400;8.670;2023-04-21T06:15:45;4.78;;;4.38;;
12650;SDS011;6390;49.400;8.670;2023-04-21T06:18:11;5.05;;;4.10;;
12650;SDS011;6390;49.400;8.670;2023-04-21T06:20:38;5.05;;;4.55;;
12650;SDS011;6390;49.400;8.670;2023-04-21T06:23:05;7.25;;;4.43;;
12650;SDS011;6390;49.400;8.670;2023-04-21T06:25:31;5.18;;;4.68;;
12650;SDS011;6390;49.400;8.670;2023-04-21T06:27:57;5.00;;;4.57;;
12650;SDS011;6390;49.400;8.670;2023-04-21T06:30:23;4.85;;;4.45;;
12650;SDS011;6390;49.400;8.670;2023-04-21T06:32:50;5.80;;;4.68;;
12650;SDS011;6390;49.400;8.670;2023-04-21T06:35:16;5.43;;;4.93;;
12650;SDS011;6390;49.400;8.670;2023-04-21T06:37:42;4.90;;;4.40;;
12650;SDS011;6390;49.400;8.670;2023-04-21T06:40:09;5.63;;;4.72;;
12650;SDS011;6390;49.400;8.670;2023-04-21T06:42:36;5.30;;;4.80;;
12650;SDS011;6390;49.400;8.670;2023-04-21T06:45:02;5.25;;;4.75;;
12650;SDS011;6390;49.400;8.670;2023-04-21T06:47:28;5.45;;;4.82;;
12650;SDS011;6390;49.400;8.670;2023-04-21T06:49:54;6.13;;;5.55;;
12650;SDS011;6390;49.400;8.670;2023-04-21T06:52:21;5.78;;;5.25;;
12650;SDS011;6390;49.400;8.670;2023-04-21T06:54:47;5.93;;;5.40;;
12650;SDS011;6390;49.400;8.670;2023-04-21T06:57:13;6.13;;;5.53;;
12650;SDS011;6390;49.400;8.670;2023-04-21T06:59:39;6.43;;;5.82;;
12650;SDS011;6390;49.400;8.670;2023-04-21T07:02:05;6.20;;;5.60;;
12650;SDS011;6390;49.400;8.670;2023-04-21T07:04:32;5.80;;;5.30;;
12650;SDS011;6390;49.400;8.670;2023-04-21T07:06:58;5.78;;;5.28;;
12650;SDS011;6390;49.400;8.670;2023-04-21T07:09:24;5.80;;;5.22;;
12650;SDS011;6390;49.400;8.670;2023-04-21T07:11:52;6.10;;;5.50;;
12650;SDS011;6390;49.400;8.670;2023-04-21T07:14:19;5.97;;;5.40;;
12650;SDS011;6390;49.400;8.670;2023-04-21T07:16:45;6.65;;;6.05;;
12650;SDS011;6390;49.400;8.670;2023-04-21T07:19:11;6.45;;;5.85;;
12650;SDS011;6390;49.400;8.670;2023-04-21T07:21:37;6.72;;;6.13;;
12650;SDS011;6390;49.400;8.670;2023-04-21T07:24:04;7.38;;;6.68;;
12650;SDS011;6390;49.400;8.670;2023-04-21T07:26:30;7.07;;;6.38;;
12650;SDS011;6390;49.400;8.670;2023-04-21T07:28:58;7.00;;;6.30;;
12650;SDS011;6390;49.400;8.670;2023-04-21T07:31:24;7.43;;;6.10;;
12650;SDS011;6390;49.400;8.670;2023-04-21T07:33:50;6.68;;;6.07;;
12650;SDS011;6390;49.400;8.670;2023-04-21T07:36:16;7.00;;;6.22;;
12650;SDS011;6390;49.400;8.670;2023-04-21T07:38:42;6.53;;;5.93;;
12650;SDS011;6390;49.400;8.670;2023-04-21T07:41:09;6.47;;;5.85;;
12650;SDS011;6390;49.400;8.670;2023-04-21T07:43:36;6.20;;;5.60;;
12650;SDS011;6390;49.400;8.670;2023-04-21T07:46:03;6.53;;;5.93;;
12650;SDS011;6390;49.400;8.670;2023-04-21T07:48:30;7.20;;;6.05;;
12650;SDS011;6390;49.400;8.670;2023-04-21T07:50:56;6.85;;;6.15;;
12650;SDS011;6390;49.400;8.670;2023-04-21T07:53:24;7.18;;;6.43;;
12650;SDS011;6390;49.400;8.670;2023-04-21T07:55:50;7.18;;;6.47;;
12650;SDS011;6390;49.400;8.670;2023-04-21T07:58:17;7.45;;;6.70;;
12650;SDS011;6390;49.400;8.670;2023-04-21T08:00:43;7.45;;;6.70;;
12650;SDS011;6390;49.400;8.670;2023-04-21T08:03:09;7.10;;;6.40;;
12650;SDS011;6390;49.400;8.670;2023-04-21T08:05:35;7.03;;;6.35;;
12650;SDS011;6390;49.400;8.670;2023-04-21T08:08:01;6.95;;;6.25;;
12650;SDS011;6390;49.400;8.670;2023-04-21T08:10:27;7.13;;;5.82;;
12650;SDS011;6390;49.400;8.670;2023-04-21T08:12:53;6.05;;;5.53;;
12650;SDS011;6390;49.400;8.670;2023-04-21T08:15:19;6.45;;;5.85;;
12650;SDS011;6390;49.400;8.670;2023-04-21T08:17:46;6.03;;;5.38;;
12650;SDS011;6390;49.400;8.670;2023-04-21T08:33:36;4.95;;;4.45;;
12650;SDS011;6390;49.400;8.670;2023-04-21T08:36:02;5.13;;;4.63;;
12650;SDS011;6390;49.400;8.670;2023-04-21T08:38:28;4.25;;;3.85;;
12650;SDS011;6390;49.400;8.670;2023-04-21T08:40:54;4.18;;;3.78;;
12650;SDS011;6390;49.400;8.670;2023-04-21T08:43:21;3.97;;;3.60;;
12650;SDS011;6390;49.400;8.670;2023-04-21T08:45:47;4.22;;;3.83;;
12650;SDS011;6390;49.400;8.670;2023-04-21T08:48:14;6.97;;;6.47;;
12650;SDS011;6390;49.400;8.670;2023-04-21T08:50:42;4.70;;;4.30;;
12650;SDS011;6390;49.400;8.670;2023-04-21T08:53:10;3.88;;;3.58;;
12650;SDS011;6390;49.400;8.670;2023-04-21T08:55:36;3.33;;;3.03;;
12650;SDS011;6390;49.400;8.670;2023-04-21T08:58:03;3.45;;;3.10;;
12650;SDS011;6390;49.400;8.670;2023-04-21T09:00:30;2.97;;;2.72;;
12650;SDS011;6390;49.400;8.670;2023-04-21T09:02:57;3.00;;;2.80;;
12650;SDS011;6390;49.400;8.670;2023-04-21T09:05:25;3.63;;;3.35;;
12650;SDS011;6390;49.400;8.670;2023-04-21T09:08:05;3.78;;;3.47;;
12650;SDS011;6390;49.400;8.670;2023-04-21T09:10:46;3.95;;;3.65;;
12650;SDS011;6390;49.400;8.670;2023-04-21T09:13:14;4.13;;;3.83;;
12650;SDS011;6390;49.400;8.670;2023-04-21T09:15:42;3.33;;;3.13;;
12650;SDS011;6390;49.400;8.670;2023-04-21T09:18:12;4.05;;;3.75;;
12650;SDS011;6390;49.400;8.670;2023-04-21T09:21:14;3.78;;;3.47;;
12650;SDS011;6390;49.400;8.670;2023-04-21T09:23:59;2.88;;;2.67;;
12650;SDS011;6390;49.400;8.670;2023-04-21T09:26:30;3.08;;;2.88;;
12650;SDS011;6390;49.400;8.670;2023-04-21T09:28:57;2.35;;;2.22;;
12650;SDS011;6390;49.400;8.670;2023-04-21T09:31:23;2.97;;;2.78;;
12650;SDS011;6390;49.400;8.670;2023-04-21T09:33:50;2.65;;;2.45;;
12650;SDS011;6390;49.400;8.670;2023-04-21T09:36:23;2.40;;;2.28;;
12650;SDS011;6390;49.400;8.670;2023-04-21T09:38:58;2.58;;;2.38;;
12650;SDS011;6390;49.400;8.670;2023-04-21T09:41:26;3.97;;;3.00;;
12650;SDS011;6390;49.400;8.670;2023-04-21T09:43:54;3.10;;;2.85;;
12650;SDS011;6390;49.400;8.670;2023-04-21T09:46:20;3.17;;;2.88;;
12650;SDS011;6390;49.400;8.670;2023-04-21T09:48:46;3.38;;;3.08;;
12650;SDS011;6390;49.400;8.670;2023-04-21T09:51:13;5.35;;;4.85;;
12650;SDS011;6390;49.400;8.670;2023-04-21T09:53:41;3.60;;;3.30;;
12650;SDS011;6390;49.400;8.670;2023-04-21T09:56:10;3.65;;;3.35;;
12650;SDS011;6390;49.400;8.670;2023-04-21T09:58:45;3.22;;;3.03;;
12650;SDS011;6390;49.400;8.670;2023-04-21T10:01:14;2.70;;;2.50;;
12650;SDS011;6390;49.400;8.670;2023-04-21T10:03:42;3.38;;;3.13;;
12650;SDS011;6390;49.400;8.670;2023-04-21T10:06:10;2.80;;;2.60;;
12650;SDS011;6390;49.400;8.670;2023-04-21T10:08:37;2.72;;;2.53;;
12650;SDS011;6390;49.400;8.670;2023-04-21T10:11:03;3.10;;;2.90;;
12650;SDS011;6390;49.400;8.670;2023-04-21T10:13:30;3.72;;;2.70;;
12650;SDS011;6390;49.400;8.670;2023-04-21T10:16:04;2.70;;;2.50;;
12650;SDS011;6390;49.400;8.670;2023-04-21T10:18:35;2.70;;;2.50;;
12650;SDS011;6390;49.400;8.670;2023-04-21T10:21:07;2.42;;;2.22;;
12650;SDS011;6390;49.400;8.670;2023-04-21T10:23:49;2.50;;;2.30;;
12650;SDS011;6390;49.400;8.670;2023-04-21T10:26:21;2.50;;;2.30;;
12650;SDS011;6390;49.400;8.670;2023-04-21T10:28:51;2.53;;;2.33;;
12650;SDS011;6390;49.400;8.670;2023-04-21T10:31:29;2.30;;;2.10;;
12650;SDS011;6390;49.400;8.670;2023-04-21T10:44:51;1.75;;;1.65;;
12650;SDS011;6390;49.400;8.670;2023-04-21T10:47:40;2.05;;;1.95;;
12650;SDS011;6390;49.400;8.670;2023-04-21T10:50:20;1.85;;;1.75;;
12650;SDS011;6390;49.400;8.670;2023-04-21T10:55:37;1.70;;;1.60;;
12650;SDS011;6390;49.400;8.670;2023-04-21T10:58:06;1.90;;;1.80;;
12650;SDS011;6390;49.400;8.670;2023-04-21T11:00:33;2.20;;;2.10;;
12650;SDS011;6390;49.400;8.670;2023-04-21T11:03:03;2.00;;;1.90;;
12650;SDS011;6390;49.400;8.670;2023-04-21T11:05:32;2.05;;;1.95;;
12650;SDS011;6390;49.400;8.670;2023-04-21T11:08:09;2.00;;;1.90;;
12650;SDS011;6390;49.400;8.670;2023-04-21T11:13:10;2.22;;;2.03;;
12650;SDS011;6390;49.400;8.670;2023-04-21T11:15:36;2.55;;;2.35;;
12650;SDS011;6390;49.400;8.670;2023-04-21T11:18:03;2.33;;;2.13;;
12650;SDS011;6390;49.400;8.670;2023-04-21T11:20:32;2.97;;;2.20;;
12650;SDS011;6390;49.400;8.670;2023-04-21T11:22:58;2.25;;;2.05;;
12650;SDS011;6390;49.400;8.670;2023-04-21T11:25:24;2.28;;;2.08;;
12650;SDS011;6390;49.400;8.670;2023-04-21T11:27:54;2.45;;;2.25;;
12650;SDS011;6390;49.400;8.670;2023-04-21T11:30:29;2.55;;;2.35;;
12650;SDS011;6390;49.400;8.670;2023-04-21T11:32:59;2.83;;;2.63;;
12650;SDS011;6390;49.400;8.670;2023-04-21T11:35:25;2.78;;;2.58;;
12650;SDS011;6390;49.400;8.670;2023-04-21T11:37:51;3.03;;;2.60;;
12650;SDS011;6390;49.400;8.670;2023-04-21T11:40:18;2.65;;;2.45;;
12650;SDS011;6390;49.400;8.670;2023-04-21T11:42:44;2.78;;;2.58;;
12650;SDS011;6390;49.400;8.670;2023-04-21T11:45:17;2.78;;;2.58;;
12650;SDS011;6390;49.400;8.670;2023-04-21T11:47:43;2.67;;;2.47;;
12650;SDS011;6390;49.400;8.670;2023-04-21T11:50:10;3.13;;;2.58;;
12650;SDS011;6390;49.400;8.670;2023-04-21T11:52:36;2.72;;;2.53;;
12650;SDS011;6390;49.400;8.670;2023-04-21T11:57:41;3.10;;;2.80;;
12650;SDS011;6390;49.400;8.670;2023-04-21T12:00:08;3.50;;;2.75;;
12650;SDS011;6390;49.400;8.670;2023-04-21T12:02:37;3.45;;;2.88;;
12650;SDS011;6390;49.400;8.670;2023-04-21T12:05:07;3.17;;;2.88;;
12650;SDS011;6390;49.400;8.670;2023-04-21T12:07:35;2.53;;;2.33;;
12650;SDS011;6390;49.400;8.670;2023-04-21T12:10:07;3.33;;;3.03;;
12650;SDS011;6390;49.400;8.670;2023-04-21T12:12:36;6.25;;;4.47;;
12650;SDS011;6390;49.400;8.670;2023-04-21T12:15:04;3.13;;;2.83;;
12650;SDS011;6390;49.400;8.670;2023-04-21T12:17:38;2.55;;;2.35;;
12650;SDS011;6390;49.400;8.670;2023-04-21T12:20:18;2.75;;;2.55;;
12650;SDS011;6390;49.400;8.670;2023-04-21T12:22:47;2.55;;;2.35;;
12650;SDS011;6390;49.400;8.670;2023-04-21T12:25:14;3.40;;;3.10;;
12650;SDS011;6390;49.400;8.670;2023-04-21T12:27:56;3.10;;;2.80;;
12650;SDS011;6390;49.400;8.670;2023-04-21T12:30:23;3.63;;;3.28;;
12650;SDS011;6390;49.400;8.670;2023-04-21T12:32:49;3.65;;;3.10;;
12650;SDS011;6390;49.400;8.670;2023-04-21T12:35:16;3.22;;;2.90;;
12650;SDS011;6390;49.400;8.670;2023-04-21T12:37:43;4.15;;;3.10;;
12650;SDS011;6390;49.400;8.670;2023-04-21T12:40:09;2.90;;;2.70;;
12650;SDS011;6390;49.400;8.670;2023-04-21T12:42:35;2.90;;;2.70;;
12650;SDS011;6390;49.400;8.670;2023-04-21T12:45:01;3.20;;;2.90;;
12650;SDS011;6390;49.400;8.670;2023-04-21T12:47:29;3.05;;;2.75;;
12650;SDS011;6390;49.400;8.670;2023-04-21T12:49:55;3.50;;;3.20;;
12650;SDS011;6390;49.400;8.670;2023-04-21T12:52:21;3.50;;;3.20;;
12650;SDS011;6390;49.400;8.670;2023-04-21T12:54:47;3.15;;;2.88;;
12650;SDS011;6390;49.400;8.670;2023-04-21T12:57:13;3.25;;;2.95;;
12650;SDS011;6390;49.400;8.670;2023-04-21T12:59:40;3.13;;;2.85;;
12650;SDS011;6390;49.400;8.670;2023-04-21T13:02:06;4.38;;;2.78;;
12650;SDS011;6390;49.400;8.670;2023-04-21T13:04:32;3.25;;;2.95;;
12650;SDS011;6390;49.400;8.670;2023-04-21T13:06:58;3.65;;;3.25;;
12650;SDS011;6390;49.400;8.670;2023-04-21T13:09:24;3.53;;;2.80;;
12650;SDS011;6390;49.400;8.670;2023-04-21T13:11:50;3.35;;;3.05;;
12650;SDS011;6390;49.400;8.670;2023-04-21T13:14:16;3.63;;;3.33;;
12650;SDS011;6390;49.400;8.670;2023-04-21T13:16:43;3.22;;;3.03;;
12650;SDS011;6390;49.400;8.670;2023-04-21T13:19:09;3.10;;;2.80;;
12650;SDS011;6390;49.400;8.670;2023-04-21T13:21:35;3.40;;;3.10;;
12650;SDS011;6390;49.400;8.670;2023-04-21T13:24:01;3.10;;;2.80;;
12650;SDS011;6390;49.400;8.670;2023-04-21T13:26:29;2.75;;;2.55;;
12650;SDS011;6390;49.400;8.670;2023-04-21T13:28:57;3.30;;;3.00;;
12650;SDS011;6390;49.400;8.670;2023-04-21T13:31:23;3.08;;;2.78;;
12650;SDS011;6390;49.400;8.670;2023-04-21T13:33:50;3.00;;;2.70;;
12650;SDS011;6390;49.400;8.670;2023-04-21T13:36:16;2.85;;;2.65;;
12650;SDS011;6390;49.400;8.670;2023-04-21T13:38:42;3.22;;;2.92;;
12650;SDS011;6390;49.400;8.670;2023-04-21T13:41:08;3.25;;;2.58;;
12650;SDS011;6390;49.400;8.670;2023-04-21T13:43:34;3.20;;;2.90;;
12650;SDS011;6390;49.400;8.670;2023-04-21T13:46:01;5.13;;;3.20;;
12650;SDS011;6390;49.400;8.670;2023-04-21T13:48:27;3.30;;;2.80;;
12650;SDS011;6390;49.400;8.670;2023-04-21T13:50:53;3.20;;;2.90;;
12650;SDS011;6390;49.400;8.670;2023-04-21T13:53:20;3.08;;;2.80;;
12650;SDS011;6390;49.400;8.670;2023-04-21T13:55:46;3.22;;;2.92;;
12650;SDS011;6390;49.400;8.670;2023-04-21T13:58:13;3.13;;;2.92;;
12650;SDS011;6390;49.400;8.670;2023-04-21T14:00:41;3.40;;;3.10;;
12650;SDS011;6390;49.400;8.670;2023-04-21T14:03:07;3.88;;;3.20;;
12650;SDS011;6390;49.400;8.670;2023-04-21T14:05:35;3.22;;;2.92;;
12650;SDS011;6390;49.400;8.670;2023-04-21T14:08:01;3.10;;;2.90;;
12650;SDS011;6390;49.400;8.670;2023-04-21T14:10:27;3.45;;;3.15;;
12650;SDS011;6390;49.400;8.670;2023-04-21T14:12:53;3.03;;;2.83;;
12650;SDS011;6390;49.400;8.670;2023-04-21T14:15:19;3.45;;;2.92;;
12650;SDS011;6390;49.400;8.670;2023-04-21T14:17:45;3.63;;;3.33;;
12650;SDS011;6390;49.400;8.670;2023-04-21T14:20:11;3.10;;;2.80;;
12650;SDS011;6390;49.400;8.670;2023-04-21T14:22:37;3.38;;;3.08;;
12650;SDS011;6390;49.400;8.670;2023-04-21T14:25:03;2.65;;;2.45;;
12650;SDS011;6390;49.400;8.670;2023-04-21T14:27:30;2.92;;;2.72;;
12650;SDS011;6390;49.400;8.670;2023-04-21T14:29:57;3.17;;;2.88;;
12650;SDS011;6390;49.400;8.670;2023-04-21T14:32:24;3.00;;;2.70;;
12650;SDS011;6390;49.400;8.670;2023-04-21T14:34:50;4.35;;;3.28;;
12650;SDS011;6390;49.400;8.670;2023-04-21T14:37:17;2.45;;;2.25;;
12650;SDS011;6390;49.400;8.670;2023-04-21T14:39:45;2.60;;;2.30;;
12650;SDS011;6390;49.400;8.670;2023-04-21T14:42:11;2.47;;;2.28;;
12650;SDS011;6390;49.400;8.670;2023-04-21T14:44:37;2.85;;;2.65;;
12650;SDS011;6390;49.400;8.670;2023-04-21T14:47:03;2.58;;;2.38;;
12650;SDS011;6390;49.400;8.670;2023-04-21T14:49:29;3.85;;;2.92;;
12650;SDS011;6390;49.400;8.670;2023-04-21T14:51:56;3.08;;;2.78;;
12650;SDS011;6390;49.400;8.670;2023-04-21T14:54:22;3.10;;;2.80;;
12650;SDS011;6390;49.400;8.670;2023-04-21T14:56:48;3.20;;;2.92;;
12650;SDS011;6390;49.400;8.670;2023-04-21T14:59:14;3.00;;;2.80;;
12650;SDS011;6390;49.400;8.670;2023-04-21T15:01:40;2.42;;;2.22;;
12650;SDS011;6390;49.400;8.670;2023-04-21T15:04:06;2.60;;;2.40;;
12650;SDS011;6390;49.400;8.670;2023-04-21T15:06:32;2.80;;;2.60;;
12650;SDS011;6390;49.400;8.670;2023-04-21T15:08:58;3.13;;;2.83;;
12650;SDS011;6390;49.400;8.670;2023-04-21T15:11:24;3.30;;;3.00;;
12650;SDS011;6390;49.400;8.670;2023-04-21T15:13:50;2.90;;;2.70;;
12650;SDS011;6390;49.400;8.670;2023-04-21T15:16:16;3.30;;;3.00;;
12650;SDS011;6390;49.400;8.670;2023-04-21T15:18:42;2.97;;;2.78;;
12650;SDS011;6390;49.400;8.670;2023-04-21T15:21:09;3.05;;;2.80;;
12650;SDS011;6390;49.400;8.670;2023-04-21T15:23:35;3.33;;;3.03;;
12650;SDS011;6390;49.400;8.670;2023-04-21T15:26:01;3.50;;;2.97;;
12650;SDS011;6390;49.400;8.670;2023-04-21T15:28:28;2.90;;;2.60;;
12650;SDS011;6390;49.400;8.670;2023-04-21T15:30:55;3.45;;;3.15;;
12650;SDS011;6390;49.400;8.670;2023-04-21T15:33:21;2.85;;;2.60;;
12650;SDS011;6390;49.400;8.670;2023-04-21T18:19:02;0.93;;;0.90;;